Latest Weather Observations for Norah Head

IDN60801

Issued at 10:32 am EDT Friday 27 March 2015 (issued every 30 minutes, with the page automatically refreshed every 10 minutes)

About weather observations | Map of weather stations | Latest weather observations for NSW | Other Formats
Station Details ID: 061366 Name: NORAH HEAD AWS Lat: -33.28 Lon: 151.58 Height: 18.8 m
Data from the previous 72 hours. | See also: Recent months at Norah Head
Date/Time
EDT
Temp
°C
App
Temp
°C
Dew
Point
Rel
Hum
%
Delta-T
°C
Wind Press
QNH
hPa
Press
MSL
hPa
Rain
since 9 am
mm
Dir
 
Spd
km/h
Gust
km/h
Spd
kts
Gust
kts
27/10:30am 18.9 16.4 4.7 39 6.8 WNW 7 15 4 8 1020.9 1020.8 0.0
27/10:00am 18.6 16.1 4.0 38 6.9 WNW 6 15 3 8 1021.1 1021.0 0.0
27/09:30am 17.8 15.2 4.0 40 6.5 WNW 7 13 4 7 1021.1 1021.0 0.0
27/09:00am 17.1 14.4 3.8 41 6.2 WNW 7 11 4 6 1021.1 1021.0 0.0
27/08:30am 16.7 14.4 5.9 49 5.2 NW 7 13 4 7 1021.0 1020.9 0.0
27/08:00am 15.4 13.9 6.7 56 4.2 NW 4 9 2 5 1020.8 1020.7 0.0
27/07:30am 13.6 11.3 5.0 56 4.0 WNW 6 9 3 5 1020.5 1020.4 0.0
27/07:00am 13.7 11.1 3.2 49 4.7 W 6 9 3 5 1020.3 1020.2 0.0
27/06:30am 13.7 11.1 3.2 49 4.7 WNW 6 11 3 6 1020.0 1019.9 0.0
27/06:00am 14.1 11.2 2.7 46 5.0 W 7 11 4 6 1019.8 1019.7 0.0
27/05:30am 14.7 11.3 1.9 42 5.6 W 9 13 5 7 1019.7 1019.6 0.0
27/05:00am 15.1 11.7 2.0 41 5.8 W 9 13 5 7 1019.6 1019.5 0.0
27/04:30am 15.3 11.9 2.1 41 5.8 WSW 9 13 5 7 1019.4 1019.3 0.0
27/04:00am 15.3 12.3 2.1 41 5.8 WSW 7 13 4 7 1019.5 1019.4 0.0
27/03:30am 15.8 13.1 2.6 41 5.9 W 6 11 3 6 1019.5 1019.4 0.0
27/03:00am 16.4 13.1 2.4 39 6.3 WSW 9 13 5 7 1019.6 1019.5 0.0
27/02:30am 16.9 13.0 3.6 41 6.2 WSW 13 22 7 12 1019.9 1019.8 0.0
27/02:00am 17.7 14.0 4.6 42 6.2 SW 13 20 7 11 1020.0 1019.9 0.0
27/01:30am 18.2 15.1 5.4 43 6.2 WSW 11 15 6 8 1019.9 1019.8 0.0
27/01:00am 18.8 15.3 5.6 42 6.4 WSW 13 22 7 12 1019.9 1019.8 0.0
27/12:30am 19.2 16.0 6.7 44 6.3 WSW 13 19 7 10 1019.7 1019.6 0.0
27/12:00am 19.5 16.8 7.3 45 6.2 SW 11 19 6 10 1019.5 1019.4 0.0
 
Date/Time
EDT
Temp
°C
App
Temp
°C
Dew
Point
Rel
Hum
%
Delta-T
°C
Wind Press
QNH
hPa
Press
MSL
hPa
Rain
since 9 am
mm
Dir
 
Spd
km/h
Gust
km/h
Spd
kts
Gust
kts
26/11:30pm 19.9 17.1 7.0 43 6.5 SW 11 15 6 8 1019.2 1019.1 0.0
26/11:00pm 20.4 17.3 7.4 43 6.6 SW 13 19 7 10 1019.2 1019.1 0.0
26/10:30pm 21.1 17.9 7.0 40 7.2 WSW 13 19 7 10 1019.0 1018.9 0.0
26/10:00pm 21.7 19.9 9.3 45 6.6 SW 9 17 5 9 1018.7 1018.6 0.0
26/09:30pm 20.8 20.0 12.8 60 4.5 SW 9 13 5 7 1018.3 1018.2 0.0
26/09:00pm 21.3 22.5 16.9 76 2.7 SW 6 11 3 6 1018.0 1017.9 0.0
26/08:30pm 21.1 23.2 18.1 83 1.9 S 4 7 2 4 1017.7 1017.6 0.0
26/08:00pm 21.6 23.4 18.4 82 2.0 SW 6 9 3 5 1017.2 1017.1 0.0
26/07:30pm 21.8 23.6 18.2 80 2.2 ESE 6 7 3 4 1016.4 1016.3 0.0
26/07:00pm 22.1 23.0 18.5 80 2.3 E 11 13 6 7 1015.8 1015.7 0.0
26/06:30pm 22.5 23.4 18.5 78 2.5 E 11 13 6 7 1015.4 1015.3 0.0
26/06:00pm 22.7 23.0 18.0 75 2.9 ESE 13 15 7 8 1015.2 1015.1 0.0
26/05:30pm 23.0 23.0 18.1 74 3.1 ESE 15 17 8 9 1014.9 1014.8 0.0
26/05:00pm 23.5 23.7 18.6 74 3.1 ESE 15 17 8 9 1015.0 1014.9 0.0
26/04:30pm 23.9 24.0 18.3 71 3.5 ESE 15 17 8 9 1014.8 1014.7 0.0
26/04:00pm 24.5 24.5 18.2 68 4.0 ESE 15 17 8 9 1015.0 1014.9 0.0
26/03:30pm 24.5 24.9 18.2 68 4.0 E 13 17 7 9 1015.1 1015.0 0.0
26/03:00pm 25.0 26.2 18.2 66 4.3 ESE 9 15 5 8 1015.3 1015.2 0.0
26/02:30pm 25.8 27.1 19.2 67 4.2 ENE 11 13 6 7 1015.5 1015.4 0.0
26/02:00pm 25.4 26.6 19.1 68 4.0 ENE 11 15 6 8 1015.8 1015.7 0.0
26/01:30pm 25.7 27.4 18.4 64 4.6 SE 7 9 4 5 1016.1 1016.0 0.0
26/01:00pm 24.8 26.0 17.3 63 4.7 ESE 7 11 4 6 1016.4 1016.3 0.0
26/12:30pm 25.3 26.4 15.6 55 5.9 N 4 9 2 5 1016.8 1016.7 0.0
26/12:00pm 24.7 26.2 16.7 61 4.9 W 4 11 2 6 1017.1 1017.0 0.0
26/11:30am 24.2 25.5 17.2 65 4.3 W 6 13 3 7 1017.4 1017.3 0.0
26/11:00am 23.8 25.1 17.5 68 3.9 WNW 7 15 4 8 1017.5 1017.4 0.0
26/10:30am 22.6 23.2 16.9 70 3.5 WNW 9 20 5 11 1017.7 1017.6 0.0
26/10:00am 22.4 23.3 17.5 74 3.0 WNW 9 15 5 8 1017.7 1017.6 0.0
26/09:30am 21.5 22.8 17.1 76 2.7 WNW 6 11 3 6 1017.6 1017.5 0.0
26/09:00am 20.2 21.1 16.6 80 2.2 W 7 15 4 8 1017.6 1017.5 0.0
26/08:30am 19.4 19.5 16.6 84 1.7 W 11 17 6 9 1017.3 1017.2 0.0
26/08:00am 18.4 18.0 16.2 87 1.3 W 13 20 7 11 1017.2 1017.1 0.0
26/07:30am 18.2 17.6 16.7 91 0.9 WSW 15 20 8 11 1017.0 1016.9 0.0
26/07:00am 18.4 17.9 16.9 91 0.9 W 15 19 8 10 1016.6 1016.5 0.0
26/06:30am 18.5 18.3 16.7 89 1.1 W 13 20 7 11 1016.5 1016.4 0.0
26/06:00am 19.1 19.3 16.7 86 1.4 W 11 17 6 9 1016.3 1016.2 0.0
26/05:30am 19.0 19.8 16.4 85 1.6 WNW 7 15 4 8 1016.3 1016.2 0.0
26/05:00am 20.1 21.8 17.1 83 1.8 NNW 4 4 2 2 1016.3 1016.2 0.0
26/04:30am 19.9 20.9 16.9 83 1.8 WNW 7 11 4 6 1016.3 1016.2 0.0
26/04:00am 20.9 22.1 17.3 80 2.2 N 7 19 4 10 1016.3 1016.2 0.0
26/03:30am 21.4 20.9 17.8 80 2.2 NE 17 20 9 11 1016.3 1016.2 0.0
26/03:00am 21.3 20.3 17.5 79 2.3 NE 19 22 10 12 1016.5 1016.4 0.0
26/02:30am 21.1 20.0 17.7 81 2.1 NE 20 22 11 12 1016.7 1016.6 0.0
26/02:00am 20.7 19.4 17.3 81 2.1 NE 20 24 11 13 1017.1 1017.0 0.0
26/01:30am 20.5 19.1 16.9 80 2.2 NE 20 24 11 13 1017.2 1017.1 0.0
26/01:00am 20.4 18.9 16.4 78 2.4 NE 19 22 10 12 1017.5 1017.4 0.0
26/12:30am 20.9 19.3 16.5 76 2.7 NNE 20 28 11 15 1017.7 1017.6 0.0
26/12:00am 20.7 19.4 16.9 79 2.3 NE 19 24 10 13 1017.9 1017.8 0.0
 
Date/Time
EDT
Temp
°C
App
Temp
°C
Dew
Point
Rel
Hum
%
Delta-T
°C
Wind Press
QNH
hPa
Press
MSL
hPa
Rain
since 9 am
mm
Dir
 
Spd
km/h
Gust
km/h
Spd
kts
Gust
kts
25/11:30pm 20.8 19.5 16.8 78 2.4 ENE 19 26 10 14 1018.0 1017.9 0.0
25/11:00pm 20.6 19.5 16.4 77 2.5 ENE 17 20 9 11 1018.1 1018.0 0.0
25/10:30pm 20.4 19.2 16.0 76 2.6 ENE 17 20 9 11 1018.2 1018.1 0.0
25/10:00pm 21.0 19.7 15.8 72 3.1 E 17 20 9 11 1018.2 1018.1 0.0
25/09:30pm 21.1 19.7 15.6 71 3.3 E 17 22 9 12 1018.2 1018.1 0.0
25/09:00pm 21.0 19.6 15.5 71 3.3 E 17 19 9 10 1018.0 1017.9 0.0
25/08:30pm 20.9 19.8 15.4 71 3.3 ESE 15 17 8 9 1017.6 1017.5 0.0
25/08:00pm 20.7 19.3 15.5 72 3.1 SE 17 20 9 11 1017.5 1017.4 0.0
25/07:30pm 20.7 19.4 15.7 73 3.0 SE 17 22 9 12 1017.3 1017.2 0.0
25/07:00pm 20.5 18.6 15.3 72 3.1 SSE 19 22 10 12 1017.1 1017.0 0.0
25/06:30pm 20.8 18.8 15.4 71 3.2 SSE 20 26 11 14 1016.9 1016.8 0.0
25/06:00pm 21.2 18.8 15.5 70 3.4 SSE 22 26 12 14 1016.7 1016.6 0.0
25/05:30pm 21.6 19.2 15.4 68 3.7 SSE 22 28 12 15 1016.5 1016.4 0.0
25/05:00pm 22.0 19.7 15.8 68 3.7 SSE 22 28 12 15 1016.4 1016.3 0.0
25/04:30pm 22.1 19.8 15.7 67 3.8 SSE 22 28 12 15 1016.4 1016.3 0.0
25/04:00pm 22.3 19.7 15.9 67 3.9 SSE 24 30 13 16 1016.4 1016.3 0.0
25/03:30pm 22.3 19.4 16.1 68 3.7 S 26 32 14 17 1016.3 1016.2 0.0
25/03:00pm 22.2 19.4 17.3 74 3.0 S 28 33 15 18 1016.3 1016.2 0.0
25/02:30pm 21.9 19.0 17.1 74 2.9 S 28 37 15 20 1016.5 1016.4 0.0
25/02:00pm 21.7 18.7 16.9 74 2.9 S 28 33 15 18 1016.7 1016.6 0.0
25/01:30pm 21.6 19.4 17.0 75 2.8 S 24 32 13 17 1016.9 1016.8 0.0
25/01:00pm 21.5 19.3 16.9 75 2.8 S 24 33 13 18 1017.1 1017.0 0.0
25/12:30pm 21.3 19.4 16.7 75 2.8 S 22 32 12 17 1017.4 1017.3 0.0
25/12:00pm 21.4 20.0 17.0 76 2.7 SSW 20 32 11 17 1017.5 1017.4 0.0
25/11:30am 21.1 19.6 16.7 76 2.7 SSW 20 32 11 17 1017.5 1017.4 0.0
25/11:00am 20.7 18.6 16.1 75 2.8 SSW 22 32 12 17 1017.4 1017.3 0.0
25/10:30am 20.4 18.8 16.0 76 2.6 SSW 19 28 10 15 1017.5 1017.4 0.0
25/10:00am 20.1 18.9 16.1 78 2.4 SSW 17 26 9 14 1017.3 1017.2 0.0
25/09:30am 19.3 18.6 15.4 78 2.3 SW 13 19 7 10 1017.2 1017.1 0.0
25/09:00am 18.6 18.5 14.9 79 2.2 SW 9 22 5 12 1016.7 1016.6 46.8
25/08:30am 17.8 17.3 14.9 83 1.7 WSW 11 19 6 10 1016.4 1016.3 46.8
25/08:00am 17.2 16.7 14.8 86 1.4 WSW 11 20 6 11 1015.9 1015.8 46.8
25/07:30am 16.8 15.7 14.4 86 1.4 WSW 13 20 7 11 1015.5 1015.4 46.8
25/07:00am 16.6 15.9 14.2 86 1.4 WSW 11 17 6 9 1015.1 1015.0 46.8
25/06:30am 16.8 16.1 14.3 85 1.4 WSW 11 19 6 10 1014.8 1014.7 46.8
25/06:00am 16.9 15.8 14.2 84 1.5 SW 13 22 7 12 1014.6 1014.5 46.8
25/05:30am 17.1 16.1 14.6 85 1.4 WSW 13 20 7 11 1014.1 1014.0 46.8
25/05:00am 17.2 16.6 14.7 85 1.4 WSW 11 17 6 9 1013.8 1013.7 46.8
25/04:30am 17.6 16.8 15.2 86 1.4 WSW 13 24 7 13 1013.6 1013.5 46.8
25/04:00am 18.2 17.9 16.4 89 1.1 WSW 13 19 7 10 1013.4 1013.3 46.8
25/03:30am 18.4 18.2 16.7 90 1.0 WSW 13 20 7 11 1013.3 1013.2 46.8
25/03:00am 19.2 19.4 17.7 91 0.9 SW 13 20 7 11 1013.2 1013.1 46.8
25/02:30am 19.9 20.0 18.4 91 0.9 SW 15 26 8 14 1013.1 1013.0 46.8
25/02:00am 20.4 20.1 19.1 92 0.8 SSW 19 33 10 18 1012.9 1012.8 46.8
25/01:30am 20.6 20.1 19.9 96 0.4 SSW 22 32 12 17 1012.5 1012.4 46.8
25/01:00am 20.6 21.9 20.1 97 0.3 SW 13 22 7 12 1012.4 1012.3 46.8
25/12:30am 20.8 21.9 20.5 98 0.2 SW 15 28 8 15 1012.3 1012.2 46.8
25/12:00am 21.2 21.6 21.0 99 0.1 SSW 20 28 11 15 1012.0 1011.9 46.8
 
Date/Time
EDT
Temp
°C
App
Temp
°C
Dew
Point
Rel
Hum
%
Delta-T
°C
Wind Press
QNH
hPa
Press
MSL
hPa
Rain
since 9 am
mm
Dir
 
Spd
km/h
Gust
km/h
Spd
kts
Gust
kts
24/11:30pm 21.4 22.1 21.2 99 0.1 SSW 19 26 10 14 1011.9 1011.8 46.6
24/11:00pm 21.7 24.2 21.7 100 0.0 SW 11 20 6 11 1011.9 1011.8 46.6
24/10:30pm 21.4 24.1 21.4 100 0.0 SW 9 17 5 9 1011.6 1011.5 46.2
24/10:00pm 21.2 24.4 21.2 100 0.0 SSW 6 9 3 5 1011.9 1011.8 46.0
24/09:30pm 21.4 24.4 21.2 99 0.1 SSW 7 13 4 7 1011.6 1011.5 35.8
24/09:00pm 21.7 23.6 21.4 98 0.2 S 13 22 7 12 1011.4 1011.3 20.2
24/08:30pm 21.7 24.0 21.4 98 0.2 ESE 11 15 6 8 1010.4 1010.3 15.8
24/08:00pm 21.9 24.7 21.6 98 0.2 E 9 13 5 7 1010.4 1010.3 15.8
24/07:30pm 21.9 23.0 21.2 96 0.5 SSW 17 24 9 13 1010.3 1010.2 13.6
24/07:00pm 23.1 25.9 21.5 91 1.1 SSW 9 15 5 8 1010.4 1010.3 0.4
24/06:30pm 22.8 25.9 21.1 90 1.1 E 6 6 3 3 1009.0 1009.0 0.2
24/06:00pm 23.0 25.3 21.3 90 1.1 SE 11 13 6 7 1008.7 1008.7 0.2
24/05:30pm 23.4 26.4 21.3 88 1.4 SE 7 9 4 5 1009.0 1009.0 0.2
24/05:00pm 23.0 25.7 21.3 90 1.1 ESE 9 13 5 7 1009.1 1009.1 0.2
24/04:30pm 23.4 26.7 21.8 91 1.1 ESE 7 13 4 7 1008.8 1008.8 0.2
24/04:00pm 22.6 24.0 21.1 91 1.0 SSW 15 22 8 12 1009.7 1009.6 0.2
24/03:30pm 23.3 23.4 21.2 88 1.4 SSW 22 30 12 16 1009.9 1009.8 0.2
24/03:00pm 23.3 22.5 20.8 86 1.6 S 26 30 14 16 1009.9 1009.8 0.2
24/02:30pm 24.4 26.3 22.1 87 1.5 SSE 15 17 8 9 1009.7 1009.6 0.2
24/02:00pm 23.8 25.3 20.5 82 2.2 SSE 13 17 7 9 1009.9 1009.8 0.2
24/01:30pm 25.2 27.6 21.5 80 2.5 SSE 11 13 6 7 1009.8 1009.7 0.2
24/01:00pm 26.6 29.7 22.2 77 3.0 SE 9 11 5 6 1009.9 1009.8 0.2
24/12:30pm 25.4 28.1 20.2 73 3.4 E 6 7 3 4 1010.5 1010.4 0.2
24/12:00pm 26.2 29.5 21.8 77 2.9 ENE 7 9 4 5 1010.8 1010.7 0.2
24/11:30am 25.6 28.8 21.3 77 2.8 SE 6 7 3 4 1011.2 1011.1 0.2
24/11:00am 25.2 28.8 21.3 79 2.6 SE 4 6 2 3 1011.6 1011.5 0.2

Other Formats:

Comma delimited format used in spreadsheet applications
http://www.bom.gov.au/fwo/IDN60801/IDN60801.95770.axf

JavaScript Object Notation format (JSON) in row-major order
http://www.bom.gov.au/fwo/IDN60801/IDN60801.95770.json